sensor_id;sensor_type;location;lat;lon;timestamp;P1;durP1;ratioP1;P2;durP2;ratioP2
12222;SDS011;6174;49.058;8.524;2024-01-07T07:02:33;8.37;;;7.20;;
12222;SDS011;6174;49.058;8.524;2024-01-07T07:05:06;8.40;;;6.80;;
12222;SDS011;6174;49.058;8.524;2024-01-07T07:07:33;7.57;;;6.87;;
12222;SDS011;6174;49.058;8.524;2024-01-07T07:10:01;8.77;;;7.80;;
12222;SDS011;6174;49.058;8.524;2024-01-07T07:12:30;7.97;;;6.90;;
12222;SDS011;6174;49.058;8.524;2024-01-07T07:14:58;7.30;;;6.60;;
12222;SDS011;6174;49.058;8.524;2024-01-07T07:17:26;8.90;;;7.23;;
12222;SDS011;6174;49.058;8.524;2024-01-07T07:19:53;7.57;;;6.67;;
12222;SDS011;6174;49.058;8.524;2024-01-07T07:22:20;7.17;;;6.47;;
12222;SDS011;6174;49.058;8.524;2024-01-07T07:24:47;7.73;;;6.97;;
12222;SDS011;6174;49.058;8.524;2024-01-07T07:27:14;8.73;;;6.77;;
12222;SDS011;6174;49.058;8.524;2024-01-07T07:29:41;8.53;;;6.90;;
12222;SDS011;6174;49.058;8.524;2024-01-07T07:32:08;7.97;;;6.93;;
12222;SDS011;6174;49.058;8.524;2024-01-07T07:34:36;8.47;;;6.50;;
12222;SDS011;6174;49.058;8.524;2024-01-07T07:37:03;9.20;;;7.40;;
12222;SDS011;6174;49.058;8.524;2024-01-07T07:39:30;9.77;;;7.13;;
12222;SDS011;6174;49.058;8.524;2024-01-07T07:41:57;8.60;;;7.57;;
12222;SDS011;6174;49.058;8.524;2024-01-07T07:44:23;9.57;;;7.73;;
12222;SDS011;6174;49.058;8.524;2024-01-07T07:46:50;9.27;;;7.43;;
12222;SDS011;6174;49.058;8.524;2024-01-07T07:49:17;8.87;;;7.23;;
12222;SDS011;6174;49.058;8.524;2024-01-07T07:51:45;9.33;;;7.23;;
12222;SDS011;6174;49.058;8.524;2024-01-07T07:54:12;9.30;;;7.63;;
12222;SDS011;6174;49.058;8.524;2024-01-07T07:56:38;9.70;;;7.77;;
12222;SDS011;6174;49.058;8.524;2024-01-07T07:59:05;9.00;;;7.50;;
12222;SDS011;6174;49.058;8.524;2024-01-07T08:01:33;10.13;;;7.50;;
12222;SDS011;6174;49.058;8.524;2024-01-07T08:04:00;10.67;;;7.97;;
12222;SDS011;6174;49.058;8.524;2024-01-07T08:06:30;10.23;;;7.60;;
12222;SDS011;6174;49.058;8.524;2024-01-07T08:08:58;9.70;;;7.73;;
12222;SDS011;6174;49.058;8.524;2024-01-07T08:11:24;9.97;;;7.33;;
12222;SDS011;6174;49.058;8.524;2024-01-07T08:13:51;10.13;;;7.87;;
12222;SDS011;6174;49.058;8.524;2024-01-07T08:16:18;11.03;;;8.17;;
12222;SDS011;6174;49.058;8.524;2024-01-07T08:18:45;11.60;;;8.00;;
12222;SDS011;6174;49.058;8.524;2024-01-07T08:21:12;11.00;;;8.47;;
12222;SDS011;6174;49.058;8.524;2024-01-07T08:23:38;9.73;;;7.83;;
12222;SDS011;6174;49.058;8.524;2024-01-07T08:26:07;10.87;;;7.77;;
12222;SDS011;6174;49.058;8.524;2024-01-07T08:28:33;9.10;;;7.67;;
12222;SDS011;6174;49.058;8.524;2024-01-07T08:31:00;10.00;;;8.30;;
12222;SDS011;6174;49.058;8.524;2024-01-07T08:33:27;10.83;;;7.87;;
12222;SDS011;6174;49.058;8.524;2024-01-07T08:35:56;11.13;;;8.30;;
12222;SDS011;6174;49.058;8.524;2024-01-07T08:38:23;11.13;;;8.30;;
12222;SDS011;6174;49.058;8.524;2024-01-07T08:40:50;10.57;;;8.60;;
12222;SDS011;6174;49.058;8.524;2024-01-07T08:43:18;9.93;;;8.40;;
12222;SDS011;6174;49.058;8.524;2024-01-07T08:45:45;10.20;;;9.07;;
12222;SDS011;6174;49.058;8.524;2024-01-07T08:48:12;11.67;;;8.60;;
12222;SDS011;6174;49.058;8.524;2024-01-07T08:50:38;9.63;;;8.70;;
12222;SDS011;6174;49.058;8.524;2024-01-07T08:53:05;10.40;;;8.67;;
12222;SDS011;6174;49.058;8.524;2024-01-07T08:55:32;10.40;;;8.13;;
12222;SDS011;6174;49.058;8.524;2024-01-07T08:57:59;9.83;;;8.37;;
12222;SDS011;6174;49.058;8.524;2024-01-07T09:00:27;9.43;;;8.03;;
12222;SDS011;6174;49.058;8.524;2024-01-07T09:02:56;10.17;;;8.30;;
12222;SDS011;6174;49.058;8.524;2024-01-07T09:05:23;11.17;;;9.07;;
12222;SDS011;6174;49.058;8.524;2024-01-07T09:07:50;10.27;;;8.80;;
12222;SDS011;6174;49.058;8.524;2024-01-07T09:10:17;10.07;;;7.60;;
12222;SDS011;6174;49.058;8.524;2024-01-07T09:12:44;11.07;;;8.70;;
12222;SDS011;6174;49.058;8.524;2024-01-07T09:15:11;9.77;;;8.00;;
12222;SDS011;6174;49.058;8.524;2024-01-07T09:17:39;9.53;;;8.47;;
12222;SDS011;6174;49.058;8.524;2024-01-07T09:20:06;8.87;;;7.97;;
12222;SDS011;6174;49.058;8.524;2024-01-07T09:22:34;9.50;;;8.50;;
12222;SDS011;6174;49.058;8.524;2024-01-07T09:25:04;9.70;;;8.60;;
12222;SDS011;6174;49.058;8.524;2024-01-07T09:27:32;11.13;;;8.73;;
12222;SDS011;6174;49.058;8.524;2024-01-07T09:29:59;10.77;;;9.10;;
12222;SDS011;6174;49.058;8.524;2024-01-07T09:32:26;10.60;;;9.13;;
12222;SDS011;6174;49.058;8.524;2024-01-07T09:34:54;10.87;;;9.20;;
12222;SDS011;6174;49.058;8.524;2024-01-07T09:37:21;10.63;;;9.37;;
12222;SDS011;6174;49.058;8.524;2024-01-07T09:39:47;11.37;;;9.47;;
12222;SDS011;6174;49.058;8.524;2024-01-07T09:42:15;10.77;;;8.70;;
12222;SDS011;6174;49.058;8.524;2024-01-07T09:44:43;10.77;;;9.67;;
12222;SDS011;6174;49.058;8.524;2024-01-07T09:47:11;9.87;;;8.87;;
12222;SDS011;6174;49.058;8.524;2024-01-07T09:49:38;10.63;;;9.53;;
12222;SDS011;6174;49.058;8.524;2024-01-07T09:52:07;12.13;;;9.73;;
12222;SDS011;6174;49.058;8.524;2024-01-07T09:54:35;10.60;;;9.00;;
12222;SDS011;6174;49.058;8.524;2024-01-07T09:57:03;10.73;;;8.83;;
12222;SDS011;6174;49.058;8.524;2024-01-07T09:59:31;10.17;;;9.00;;
12222;SDS011;6174;49.058;8.524;2024-01-07T10:01:58;11.47;;;9.63;;
12222;SDS011;6174;49.058;8.524;2024-01-07T10:04:26;10.30;;;9.20;;
12222;SDS011;6174;49.058;8.524;2024-01-07T10:06:53;10.20;;;8.63;;
12222;SDS011;6174;49.058;8.524;2024-01-07T10:09:22;11.00;;;9.30;;
12222;SDS011;6174;49.058;8.524;2024-01-07T10:11:51;9.63;;;8.73;;
12222;SDS011;6174;49.058;8.524;2024-01-07T10:14:18;9.13;;;7.63;;
12222;SDS011;6174;49.058;8.524;2024-01-07T10:16:47;7.80;;;6.73;;
12222;SDS011;6174;49.058;8.524;2024-01-07T10:19:17;6.87;;;6.17;;
12222;SDS011;6174;49.058;8.524;2024-01-07T10:21:46;6.90;;;6.30;;
12222;SDS011;6174;49.058;8.524;2024-01-07T10:24:13;6.70;;;6.10;;
12222;SDS011;6174;49.058;8.524;2024-01-07T10:26:41;6.83;;;6.23;;
12222;SDS011;6174;49.058;8.524;2024-01-07T10:29:08;6.50;;;5.87;;
12222;SDS011;6174;49.058;8.524;2024-01-07T10:31:35;6.03;;;5.43;;
12222;SDS011;6174;49.058;8.524;2024-01-07T10:34:06;5.47;;;5.07;;
12222;SDS011;6174;49.058;8.524;2024-01-07T10:36:33;5.60;;;5.10;;
12222;SDS011;6174;49.058;8.524;2024-01-07T10:39:00;6.03;;;5.43;;
12222;SDS011;6174;49.058;8.524;2024-01-07T10:41:27;5.83;;;5.33;;
12222;SDS011;6174;49.058;8.524;2024-01-07T10:43:56;5.30;;;4.80;;
12222;SDS011;6174;49.058;8.524;2024-01-07T10:46:24;5.63;;;5.13;;
12222;SDS011;6174;49.058;8.524;2024-01-07T10:48:55;5.13;;;4.73;;
12222;SDS011;6174;49.058;8.524;2024-01-07T10:51:27;6.20;;;5.70;;
12222;SDS011;6174;49.058;8.524;2024-01-07T10:53:55;5.07;;;4.57;;
12222;SDS011;6174;49.058;8.524;2024-01-07T10:56:23;5.17;;;4.67;;
12222;SDS011;6174;49.058;8.524;2024-01-07T10:58:51;5.17;;;4.77;;
12222;SDS011;6174;49.058;8.524;2024-01-07T11:01:19;9.00;;;8.20;;
12222;SDS011;6174;49.058;8.524;2024-01-07T11:03:47;4.90;;;4.50;;
12222;SDS011;6174;49.058;8.524;2024-01-07T11:06:22;5.07;;;4.67;;
12222;SDS011;6174;49.058;8.524;2024-01-07T11:08:54;4.50;;;4.10;;
12222;SDS011;6174;49.058;8.524;2024-01-07T11:11:25;4.17;;;3.87;;
12222;SDS011;6174;49.058;8.524;2024-01-07T11:13:53;3.70;;;3.40;;
12222;SDS011;6174;49.058;8.524;2024-01-07T11:19:09;4.60;;;4.20;;
12222;SDS011;6174;49.058;8.524;2024-01-07T11:21:38;3.77;;;3.47;;
12222;SDS011;6174;49.058;8.524;2024-01-07T11:24:05;3.80;;;3.50;;
12222;SDS011;6174;49.058;8.524;2024-01-07T11:26:32;3.90;;;3.60;;
12222;SDS011;6174;49.058;8.524;2024-01-07T11:29:00;3.60;;;3.30;;
12222;SDS011;6174;49.058;8.524;2024-01-07T11:34:38;3.83;;;3.53;;
12222;SDS011;6174;49.058;8.524;2024-01-07T11:37:06;4.13;;;3.83;;
12222;SDS011;6174;49.058;8.524;2024-01-07T11:39:35;3.97;;;3.67;;
12222;SDS011;6174;49.058;8.524;2024-01-07T11:42:03;3.80;;;3.50;;
12222;SDS011;6174;49.058;8.524;2024-01-07T11:44:32;3.70;;;3.40;;
12222;SDS011;6174;49.058;8.524;2024-01-07T11:47:02;3.50;;;3.20;;
12222;SDS011;6174;49.058;8.524;2024-01-07T11:49:31;3.93;;;3.63;;
12222;SDS011;6174;49.058;8.524;2024-01-07T11:51:58;4.20;;;3.90;;
12222;SDS011;6174;49.058;8.524;2024-01-07T11:54:24;3.80;;;3.50;;
12222;SDS011;6174;49.058;8.524;2024-01-07T11:56:51;3.70;;;3.40;;
12222;SDS011;6174;49.058;8.524;2024-01-07T11:59:19;3.40;;;3.17;;
12222;SDS011;6174;49.058;8.524;2024-01-07T12:01:46;3.70;;;3.40;;
12222;SDS011;6174;49.058;8.524;2024-01-07T12:04:14;3.63;;;3.30;;
12222;SDS011;6174;49.058;8.524;2024-01-07T12:06:41;3.80;;;3.50;;
12222;SDS011;6174;49.058;8.524;2024-01-07T12:09:11;3.70;;;3.40;;
12222;SDS011;6174;49.058;8.524;2024-01-07T12:11:38;3.40;;;3.10;;
12222;SDS011;6174;49.058;8.524;2024-01-07T12:14:06;3.80;;;3.50;;
12222;SDS011;6174;49.058;8.524;2024-01-07T12:16:33;3.40;;;3.20;;
12222;SDS011;6174;49.058;8.524;2024-01-07T12:19:00;4.20;;;3.90;;
12222;SDS011;6174;49.058;8.524;2024-01-07T12:21:28;3.60;;;3.40;;
12222;SDS011;6174;49.058;8.524;2024-01-07T12:23:55;3.93;;;3.63;;
12222;SDS011;6174;49.058;8.524;2024-01-07T12:26:25;4.20;;;3.90;;
12222;SDS011;6174;49.058;8.524;2024-01-07T12:28:53;4.07;;;3.77;;
12222;SDS011;6174;49.058;8.524;2024-01-07T12:31:20;3.90;;;3.60;;
12222;SDS011;6174;49.058;8.524;2024-01-07T12:33:47;4.07;;;3.77;;
12222;SDS011;6174;49.058;8.524;2024-01-07T12:36:14;3.93;;;3.67;;
12222;SDS011;6174;49.058;8.524;2024-01-07T12:38:42;4.03;;;3.73;;
12222;SDS011;6174;49.058;8.524;2024-01-07T12:41:09;3.97;;;3.67;;
12222;SDS011;6174;49.058;8.524;2024-01-07T12:43:36;4.20;;;3.90;;
12222;SDS011;6174;49.058;8.524;2024-01-07T12:46:03;4.17;;;3.87;;
12222;SDS011;6174;49.058;8.524;2024-01-07T12:48:30;3.70;;;3.50;;
12222;SDS011;6174;49.058;8.524;2024-01-07T12:50:57;4.40;;;4.10;;
12222;SDS011;6174;49.058;8.524;2024-01-07T12:53:24;4.50;;;4.10;;
12222;SDS011;6174;49.058;8.524;2024-01-07T12:55:53;4.77;;;4.40;;
12222;SDS011;6174;49.058;8.524;2024-01-07T12:58:19;4.70;;;4.40;;
12222;SDS011;6174;49.058;8.524;2024-01-07T13:00:47;4.40;;;4.10;;
12222;SDS011;6174;49.058;8.524;2024-01-07T13:03:13;4.57;;;4.20;;
12222;SDS011;6174;49.058;8.524;2024-01-07T13:05:42;4.00;;;3.70;;
12222;SDS011;6174;49.058;8.524;2024-01-07T13:08:11;4.40;;;3.93;;
12222;SDS011;6174;49.058;8.524;2024-01-07T13:10:37;4.40;;;4.10;;
12222;SDS011;6174;49.058;8.524;2024-01-07T13:13:05;4.77;;;4.40;;
12222;SDS011;6174;49.058;8.524;2024-01-07T13:15:34;5.10;;;4.70;;
12222;SDS011;6174;49.058;8.524;2024-01-07T13:18:01;5.27;;;4.77;;
12222;SDS011;6174;49.058;8.524;2024-01-07T13:20:28;4.80;;;4.40;;
12222;SDS011;6174;49.058;8.524;2024-01-07T13:22:55;4.60;;;4.30;;
12222;SDS011;6174;49.058;8.524;2024-01-07T13:25:22;5.23;;;4.80;;
12222;SDS011;6174;49.058;8.524;2024-01-07T13:27:49;4.93;;;4.53;;
12222;SDS011;6174;49.058;8.524;2024-01-07T13:30:17;5.10;;;4.70;;
12222;SDS011;6174;49.058;8.524;2024-01-07T13:32:44;4.50;;;4.20;;
12222;SDS011;6174;49.058;8.524;2024-01-07T13:35:11;4.90;;;4.50;;
12222;SDS011;6174;49.058;8.524;2024-01-07T13:37:38;5.13;;;4.73;;
12222;SDS011;6174;49.058;8.524;2024-01-07T13:40:07;5.43;;;5.03;;
12222;SDS011;6174;49.058;8.524;2024-01-07T13:42:35;5.10;;;4.70;;
12222;SDS011;6174;49.058;8.524;2024-01-07T13:45:02;5.70;;;5.30;;
12222;SDS011;6174;49.058;8.524;2024-01-07T13:47:31;5.57;;;5.10;;
12222;SDS011;6174;49.058;8.524;2024-01-07T13:49:58;5.30;;;4.90;;
12222;SDS011;6174;49.058;8.524;2024-01-07T13:52:24;5.43;;;5.03;;
12222;SDS011;6174;49.058;8.524;2024-01-07T13:54:54;5.37;;;4.97;;
12222;SDS011;6174;49.058;8.524;2024-01-07T13:57:22;5.70;;;5.20;;
12222;SDS011;6174;49.058;8.524;2024-01-07T13:59:49;5.40;;;5.00;;
12222;SDS011;6174;49.058;8.524;2024-01-07T14:02:15;4.97;;;4.57;;
12222;SDS011;6174;49.058;8.524;2024-01-07T14:04:45;5.23;;;4.80;;
12222;SDS011;6174;49.058;8.524;2024-01-07T14:07:13;5.43;;;5.03;;
12222;SDS011;6174;49.058;8.524;2024-01-07T14:09:40;5.33;;;4.93;;
12222;SDS011;6174;49.058;8.524;2024-01-07T14:12:07;5.73;;;5.23;;
12222;SDS011;6174;49.058;8.524;2024-01-07T14:14:34;5.07;;;4.63;;
12222;SDS011;6174;49.058;8.524;2024-01-07T14:17:01;5.53;;;5.03;;
12222;SDS011;6174;49.058;8.524;2024-01-07T14:19:27;5.30;;;4.90;;
12222;SDS011;6174;49.058;8.524;2024-01-07T14:21:55;5.60;;;5.10;;
12222;SDS011;6174;49.058;8.524;2024-01-07T14:24:22;5.70;;;5.20;;
12222;SDS011;6174;49.058;8.524;2024-01-07T14:26:49;5.40;;;5.00;;
12222;SDS011;6174;49.058;8.524;2024-01-07T14:29:16;5.10;;;4.70;;
12222;SDS011;6174;49.058;8.524;2024-01-07T14:31:43;5.00;;;4.60;;
12222;SDS011;6174;49.058;8.524;2024-01-07T14:34:10;5.40;;;5.00;;
12222;SDS011;6174;49.058;8.524;2024-01-07T14:36:39;5.63;;;5.10;;
12222;SDS011;6174;49.058;8.524;2024-01-07T14:39:09;5.50;;;5.10;;
12222;SDS011;6174;49.058;8.524;2024-01-07T14:41:38;5.20;;;4.80;;
12222;SDS011;6174;49.058;8.524;2024-01-07T14:44:05;5.07;;;4.67;;
12222;SDS011;6174;49.058;8.524;2024-01-07T14:46:32;5.17;;;4.70;;
12222;SDS011;6174;49.058;8.524;2024-01-07T14:48:59;5.10;;;4.63;;
12222;SDS011;6174;49.058;8.524;2024-01-07T14:51:25;5.60;;;5.10;;
12222;SDS011;6174;49.058;8.524;2024-01-07T14:53:53;5.33;;;4.90;;
12222;SDS011;6174;49.058;8.524;2024-01-07T14:56:22;5.00;;;4.60;;
12222;SDS011;6174;49.058;8.524;2024-01-07T14:58:49;5.20;;;4.80;;
12222;SDS011;6174;49.058;8.524;2024-01-07T15:01:15;5.43;;;5.00;;
12222;SDS011;6174;49.058;8.524;2024-01-07T15:03:43;5.10;;;4.70;;
12222;SDS011;6174;49.058;8.524;2024-01-07T15:06:10;5.20;;;4.80;;
12222;SDS011;6174;49.058;8.524;2024-01-07T15:08:40;5.13;;;4.73;;
12222;SDS011;6174;49.058;8.524;2024-01-07T15:11:07;5.10;;;4.70;;
12222;SDS011;6174;49.058;8.524;2024-01-07T15:13:35;5.67;;;5.17;;
12222;SDS011;6174;49.058;8.524;2024-01-07T15:16:04;5.50;;;5.00;;
12222;SDS011;6174;49.058;8.524;2024-01-07T15:18:32;5.40;;;5.00;;
12222;SDS011;6174;49.058;8.524;2024-01-07T15:20:58;5.97;;;5.47;;
12222;SDS011;6174;49.058;8.524;2024-01-07T15:23:25;5.50;;;5.00;;
12222;SDS011;6174;49.058;8.524;2024-01-07T15:25:52;5.57;;;5.10;;
12222;SDS011;6174;49.058;8.524;2024-01-07T15:28:19;4.90;;;4.40;;
12222;SDS011;6174;49.058;8.524;2024-01-07T15:30:47;5.20;;;4.80;;
12222;SDS011;6174;49.058;8.524;2024-01-07T15:33:14;5.13;;;4.73;;
12222;SDS011;6174;49.058;8.524;2024-01-07T15:35:41;5.00;;;4.60;;
12222;SDS011;6174;49.058;8.524;2024-01-07T15:38:08;5.07;;;4.67;;
12222;SDS011;6174;49.058;8.524;2024-01-07T15:40:35;4.77;;;4.37;;
12222;SDS011;6174;49.058;8.524;2024-01-07T15:43:01;5.03;;;4.63;;
12222;SDS011;6174;49.058;8.524;2024-01-07T15:45:28;5.37;;;4.93;;
12222;SDS011;6174;49.058;8.524;2024-01-07T15:47:56;5.13;;;4.63;;
12222;SDS011;6174;49.058;8.524;2024-01-07T15:50:23;4.57;;;4.23;;
12222;SDS011;6174;49.058;8.524;2024-01-07T15:52:50;4.90;;;4.50;;
12222;SDS011;6174;49.058;8.524;2024-01-07T15:55:17;5.30;;;4.80;;
12222;SDS011;6174;49.058;8.524;2024-01-07T15:57:44;5.03;;;4.60;;
12222;SDS011;6174;49.058;8.524;2024-01-07T16:00:11;5.60;;;5.20;;
12222;SDS011;6174;49.058;8.524;2024-01-07T16:02:39;5.03;;;4.63;;
12222;SDS011;6174;49.058;8.524;2024-01-07T16:05:07;5.30;;;4.90;;
12222;SDS011;6174;49.058;8.524;2024-01-07T16:07:34;5.00;;;4.50;;
12222;SDS011;6174;49.058;8.524;2024-01-07T16:10:01;5.03;;;4.60;;
12222;SDS011;6174;49.058;8.524;2024-01-07T16:12:28;4.83;;;4.43;;
12222;SDS011;6174;49.058;8.524;2024-01-07T16:14:55;5.10;;;4.70;;
12222;SDS011;6174;49.058;8.524;2024-01-07T19:16:03;4.33;;;3.93;;
12222;SDS011;6174;49.058;8.524;2024-01-07T19:18:31;4.17;;;3.87;;
12222;SDS011;6174;49.058;8.524;2024-01-07T19:20:58;4.10;;;3.70;;
12222;SDS011;6174;49.058;8.524;2024-01-07T19:23:25;5.00;;;4.60;;
12222;SDS011;6174;49.058;8.524;2024-01-07T19:25:52;5.00;;;4.60;;
12222;SDS011;6174;49.058;8.524;2024-01-07T19:28:19;5.10;;;4.10;;
12222;SDS011;6174;49.058;8.524;2024-01-07T19:30:46;4.50;;;4.10;;
12222;SDS011;6174;49.058;8.524;2024-01-07T19:33:17;4.30;;;3.90;;
12222;SDS011;6174;49.058;8.524;2024-01-07T19:35:44;4.50;;;4.10;;
12222;SDS011;6174;49.058;8.524;2024-01-07T19:38:11;3.93;;;3.53;;
12222;SDS011;6174;49.058;8.524;2024-01-07T19:40:38;4.03;;;3.73;;
12222;SDS011;6174;49.058;8.524;2024-01-07T19:43:05;4.77;;;4.20;;
12222;SDS011;6174;49.058;8.524;2024-01-07T19:45:32;4.00;;;3.70;;
12222;SDS011;6174;49.058;8.524;2024-01-07T19:47:58;3.63;;;3.33;;
12222;SDS011;6174;49.058;8.524;2024-01-07T19:50:30;5.90;;;4.10;;
12222;SDS011;6174;49.058;8.524;2024-01-07T19:52:56;3.70;;;3.40;;
12222;SDS011;6174;49.058;8.524;2024-01-07T19:55:23;3.73;;;3.40;;
12222;SDS011;6174;49.058;8.524;2024-01-07T19:57:50;3.10;;;2.90;;
12222;SDS011;6174;49.058;8.524;2024-01-07T20:00:17;3.10;;;2.90;;
12222;SDS011;6174;49.058;8.524;2024-01-07T20:02:44;3.23;;;3.03;;
12222;SDS011;6174;49.058;8.524;2024-01-07T20:05:13;2.57;;;2.37;;
12222;SDS011;6174;49.058;8.524;2024-01-07T20:07:42;2.57;;;2.37;;
12222;SDS011;6174;49.058;8.524;2024-01-07T20:10:09;2.70;;;2.50;;
12222;SDS011;6174;49.058;8.524;2024-01-07T20:12:37;2.80;;;2.60;;
12222;SDS011;6174;49.058;8.524;2024-01-07T20:15:04;2.37;;;2.27;;
12222;SDS011;6174;49.058;8.524;2024-01-07T20:17:32;2.50;;;2.30;;
12222;SDS011;6174;49.058;8.524;2024-01-07T20:20:00;2.60;;;2.40;;
12222;SDS011;6174;49.058;8.524;2024-01-07T20:22:27;3.00;;;2.80;;
12222;SDS011;6174;49.058;8.524;2024-01-07T20:24:56;2.60;;;2.40;;
12222;SDS011;6174;49.058;8.524;2024-01-07T20:27:23;3.10;;;2.80;;
12222;SDS011;6174;49.058;8.524;2024-01-07T20:29:50;2.77;;;2.57;;
12222;SDS011;6174;49.058;8.524;2024-01-07T20:32:16;2.20;;;2.10;;
12222;SDS011;6174;49.058;8.524;2024-01-07T20:34:43;2.10;;;2.00;;
12222;SDS011;6174;49.058;8.524;2024-01-07T20:37:10;2.93;;;2.50;;
12222;SDS011;6174;49.058;8.524;2024-01-07T20:39:37;2.73;;;2.53;;
12222;SDS011;6174;49.058;8.524;2024-01-07T20:42:06;2.60;;;2.40;;
12222;SDS011;6174;49.058;8.524;2024-01-07T20:44:33;3.10;;;2.80;;
12222;SDS011;6174;49.058;8.524;2024-01-07T20:47:00;2.60;;;2.40;;
12222;SDS011;6174;49.058;8.524;2024-01-07T20:49:27;2.73;;;2.53;;
12222;SDS011;6174;49.058;8.524;2024-01-07T20:51:53;2.00;;;1.90;;
12222;SDS011;6174;49.058;8.524;2024-01-07T20:54:20;2.07;;;1.97;;
12222;SDS011;6174;49.058;8.524;2024-01-07T20:56:47;2.63;;;2.17;;
12222;SDS011;6174;49.058;8.524;2024-01-07T20:59:15;2.30;;;2.10;;
12222;SDS011;6174;49.058;8.524;2024-01-07T21:01:42;2.23;;;2.03;;
12222;SDS011;6174;49.058;8.524;2024-01-07T21:04:09;2.50;;;2.30;;
12222;SDS011;6174;49.058;8.524;2024-01-07T21:06:37;2.27;;;2.07;;
12222;SDS011;6174;49.058;8.524;2024-01-07T21:09:04;2.03;;;1.87;;
12222;SDS011;6174;49.058;8.524;2024-01-07T21:11:32;2.20;;;2.00;;
12222;SDS011;6174;49.058;8.524;2024-01-07T21:13:58;2.13;;;1.80;;
12222;SDS011;6174;49.058;8.524;2024-01-07T21:16:27;2.30;;;2.10;;
12222;SDS011;6174;49.058;8.524;2024-01-07T21:18:53;2.27;;;2.00;;
12222;SDS011;6174;49.058;8.524;2024-01-07T21:21:21;2.37;;;2.23;;
12222;SDS011;6174;49.058;8.524;2024-01-07T21:23:48;2.50;;;2.30;;
12222;SDS011;6174;49.058;8.524;2024-01-07T21:26:15;2.13;;;2.03;;
12222;SDS011;6174;49.058;8.524;2024-01-07T21:28:42;2.10;;;2.00;;
12222;SDS011;6174;49.058;8.524;2024-01-07T21:31:08;2.67;;;2.47;;
12222;SDS011;6174;49.058;8.524;2024-01-07T21:33:38;2.20;;;2.00;;
12222;SDS011;6174;49.058;8.524;2024-01-07T21:36:05;2.37;;;2.27;;
12222;SDS011;6174;49.058;8.524;2024-01-07T21:38:32;2.20;;;2.00;;
12222;SDS011;6174;49.058;8.524;2024-01-07T21:40:58;2.07;;;1.90;;
12222;SDS011;6174;49.058;8.524;2024-01-07T21:43:25;2.13;;;2.00;;
12222;SDS011;6174;49.058;8.524;2024-01-07T21:45:52;1.90;;;1.80;;
12222;SDS011;6174;49.058;8.524;2024-01-07T21:48:19;2.07;;;1.97;;
12222;SDS011;6174;49.058;8.524;2024-01-07T21:50:47;2.07;;;1.87;;
12222;SDS011;6174;49.058;8.524;2024-01-07T21:53:14;2.03;;;1.93;;
12222;SDS011;6174;49.058;8.524;2024-01-07T21:55:40;1.90;;;1.80;;
12222;SDS011;6174;49.058;8.524;2024-01-07T21:58:07;2.07;;;1.90;;
12222;SDS011;6174;49.058;8.524;2024-01-07T22:00:34;2.10;;;2.00;;
12222;SDS011;6174;49.058;8.524;2024-01-07T22:03:01;1.90;;;1.80;;
12222;SDS011;6174;49.058;8.524;2024-01-07T22:05:29;2.27;;;2.00;;
12222;SDS011;6174;49.058;8.524;2024-01-07T22:07:57;1.90;;;1.80;;
12222;SDS011;6174;49.058;8.524;2024-01-07T22:10:24;2.03;;;1.90;;
12222;SDS011;6174;49.058;8.524;2024-01-07T22:12:51;1.90;;;1.63;;
12222;SDS011;6174;49.058;8.524;2024-01-07T22:15:17;1.90;;;1.67;;
12222;SDS011;6174;49.058;8.524;2024-01-07T22:17:44;2.13;;;1.70;;
12222;SDS011;6174;49.058;8.524;2024-01-07T22:20:11;1.97;;;1.87;;
12222;SDS011;6174;49.058;8.524;2024-01-07T22:22:38;1.80;;;1.70;;
12222;SDS011;6174;49.058;8.524;2024-01-07T22:25:07;2.10;;;2.00;;
12222;SDS011;6174;49.058;8.524;2024-01-07T22:27:34;2.00;;;1.90;;
12222;SDS011;6174;49.058;8.524;2024-01-07T22:30:01;2.07;;;1.97;;
12222;SDS011;6174;49.058;8.524;2024-01-07T22:32:28;1.80;;;1.70;;
